Marlborough, NH (03455)

8:40 PM EST on February 11, 2016 (GMT -0500)
@1332 Ft./ Heavily Wooded Lot | | Change Station
CLOSE
Current Station
Personal Weather Station
Location: Roxbury, NH
Elevation: 1332 ft
Nearby Weather Stations
Active Advisory: Wind Chill Watch

Elev 1332 ft 42.95 °N, 72.22 °W | Updated 42 seconds ago

Partly Cloudy
Partly Cloudy
3.4 °F
Feels Like 3 °F
N
2.0
Wind Variable Wind from WNW
Gusts 4.0 mph

Today
High -- | Low -- °F
--% Chance of Precip.
Yesterday
High -- | Low -- °F
Precip. -- in
Pressure 29.95 in
Visibility 10.0 miles
Clouds Clear
Windchill 3 °F
Dew Point -4 °F
Humidity 69%
Rainfall 0.00 in
Snow Depth Not available.
6:52 AM 5:14 PM
Waxing Crescent, 16% visible
METAR KEEN 120135Z AUTO 27006KT 250V310 10SM CLR M12/M21 A2995 RMK AO1
Pressure 29.95 in
Visibility 10.0 miles
Clouds Clear
Windchill 3 °F
Dew Point -4 °F
Humidity 69%
Rainfall 0.00 in
Snow Depth Not available.
6:52 AM 5:14 PM
Waxing Crescent, 16% visible
METAR KEEN 120135Z AUTO 27006KT 250V310 10SM CLR M12/M21 A2995 RMK AO1

10-Day Weather Forecast

Almanac

Astronomy

Feb. 11, 2016 Rise Set
Actual Time
Civil Twilight
Nautical Twilight
Astronomical Twilight
Moon
Length of Visible Light
Length of Day
Tomorrow will be .
, % of the Moon is Illuminated

Today's Extremes

State Highs State Lows

Community

WunderPhotos

Upload Photos

1,892,207 photos uploaded!

WunderBlog® & News

Nearby

Air Quality

  Air Quality AQ Index Pollutant
Not available.

Snow Depth

Station Depth Elevation

Earthquake Activity

City Distance Mag. Time & Date
Minimum magnitude displayed is 2.5.

Coastal Water Temperatures

Place Temperature

Stations

Nearby Weather Stations

Station Location Temp. Windchill Dew Point Humidity Wind Precip. Elev Updated Type
                   

Watches & Warnings

Wind Chill Watch
Issued: 6:03 PM EST Feb. 11, 2016 – National Weather Service

... Wind chill watch in effect from Saturday evening through
Sunday morning...

The National Weather Service in gray has issued a wind chill
watch... which is in effect from Saturday evening through Sunday
morning.

* Hazard types... dangerous wind chill readings.

* Wind chill... as low as 36 below due to temperatures 13 below
to zero... and winds northwest 10 to 20 mph with gusts up to 30
mph.

* Timing... Saturday night and Sunday morning.

* Impacts... frostbite and hypothermia if unprotected from the
cold.

* Winds... northwest 10 to 20 mph with gusts up to 30 mph.

* Temperatures... 13 below to zero.

Precautionary/preparedness actions...

A wind chill watch means the there is the potential for a
combination of very cold air and strong winds to create
dangerously low wind chill values. Monitor the latest forecasts
and warnings for updates on this situation.